Time,TemperatureF,DewpointF,PressureIn,WindDirection,WindDirectionDegrees,WindSpeedMPH,WindSpeedGustMPH,Humidity,HourlyPrecipIn,Conditions,Clouds,dailyrainin,SolarRadiationWatts/m^2,SoftwareType,DateUTC
2013-05-02 00:01:00,32.0,4.0,-100.00,WSW,242,4.0,8.0,30,0.00,,,0.00,0.000000,,2013-05-02 06:01:00,
2013-05-02 00:32:00,32.0,5.0,-100.00,SW,232,2.0,8.0,31,0.00,,,0.00,0.000000,,2013-05-02 06:32:00,
2013-05-02 00:42:00,32.0,5.0,-100.00,SW,232,2.0,8.0,31,0.00,,,0.00,0.000000,,2013-05-02 06:42:00,
2013-05-02 00:52:00,32.0,5.0,-100.00,SW,232,2.0,8.0,31,0.00,,,0.00,0.000000,,2013-05-02 06:52:00,
2013-05-02 01:01:00,32.0,5.0,-100.00,SW,232,2.0,8.0,31,0.00,,,0.00,0.000000,,2013-05-02 07:01:00,
2013-05-02 01:21:00,33.0,7.0,-100.00,West,269,4.0,5.0,33,0.00,,,-99.99,0.000000,,2013-05-02 07:21:00,
2013-05-02 01:32:00,33.0,7.0,-100.00,West,269,4.0,5.0,33,0.00,,,-99.99,0.000000,,2013-05-02 07:32:00,
2013-05-02 02:32:00,35.0,8.0,-100.00,WSW,253,9.0,12.0,32,-99.99,,,0.00,0.000000,,2013-05-02 08:32:00,
2013-05-02 03:22:00,32.0,8.0,-100.00,NW,309,3.0,12.0,36,-99.99,,,0.00,0.000000,,2013-05-02 09:22:00,
2013-05-02 03:33:00,32.0,8.0,-100.00,NW,309,3.0,12.0,36,-99.99,,,0.00,0.000000,,2013-05-02 09:33:00,
2013-05-02 04:23:00,30.0,8.0,-100.00,SSE,166,1.0,8.0,38,-99.99,,,0.00,0.000000,,2013-05-02 10:23:00,
2013-05-02 04:33:00,30.0,8.0,-100.00,SSE,166,1.0,8.0,38,-99.99,,,0.00,0.000000,,2013-05-02 10:33:00,
2013-05-02 05:32:00,30.0,8.0,-100.00,SE,132,1.0,6.0,39,0.00,,,0.00,0.000000,,2013-05-02 11:32:00,
2013-05-02 06:22:00,29.0,8.0,-100.00,North,10,0.0,4.0,41,0.00,,,0.00,0.000000,,2013-05-02 12:22:00,
2013-05-02 06:32:00,29.0,8.0,-100.00,North,10,0.0,4.0,41,0.00,,,0.00,0.000000,,2013-05-02 12:32:00,
2013-05-02 07:32:00,32.0,9.0,-100.00,SSE,156,0.0,6.0,37,0.00,,,0.00,25.000000,,2013-05-02 13:32:00,
2013-05-02 08:32:00,34.0,9.0,-100.00,NE,53,1.0,5.0,35,-99.99,,,0.00,65.000000,,2013-05-02 14:32:00,
2013-05-02 09:02:00,34.0,9.0,-100.00,NE,53,1.0,5.0,35,-99.99,,,0.00,65.000000,,2013-05-02 15:02:00,
2013-05-02 09:33:00,41.0,10.0,-100.00,NE,35,3.0,6.0,28,0.00,,,0.00,111.000000,,2013-05-02 15:33:00,
2013-05-02 10:02:00,41.0,10.0,-100.00,NE,35,3.0,6.0,28,0.00,,,0.00,111.000000,,2013-05-02 16:02:00,
2013-05-02 10:32:00,50.0,9.0,-100.00,West,274,4.0,8.0,19,0.00,,,0.00,586.000000,,2013-05-02 16:32:00,
2013-05-02 10:52:00,50.0,9.0,-100.00,West,274,4.0,8.0,19,0.00,,,0.00,586.000000,,2013-05-02 16:52:00,
2013-05-02 11:02:00,50.0,9.0,-100.00,West,274,4.0,8.0,19,0.00,,,0.00,586.000000,,2013-05-02 17:02:00,
2013-05-02 11:32:00,54.0,7.0,-100.00,South,176,10.0,22.0,15,0.00,,,0.00,810.000000,,2013-05-02 17:32:00,
2013-05-02 12:32:00,58.0,7.0,-100.00,SSW,196,8.0,19.0,13,0.00,,,0.00,1001.000000,,2013-05-02 18:32:00,
2013-05-02 13:22:00,59.0,5.0,-100.00,South,171,11.0,21.0,11,0.00,,,0.00,1127.000000,,2013-05-02 19:22:00,
2013-05-02 13:32:00,59.0,5.0,-100.00,South,171,11.0,21.0,11,0.00,,,0.00,1127.000000,,2013-05-02 19:32:00,
2013-05-02 14:32:00,60.0,3.0,-100.00,SSE,156,14.0,22.0,10,0.00,,,0.00,1136.000000,,2013-05-02 20:32:00,
2013-05-02 15:21:00,67.0,1.0,-100.00,SW,233,8.0,27.0,7,0.00,,,0.00,1107.000000,,2013-05-02 21:21:00,
2013-05-02 15:33:00,67.0,1.0,-100.00,SW,233,8.0,27.0,7,0.00,,,0.00,1107.000000,,2013-05-02 21:33:00,
2013-05-02 16:33:00,64.0,4.0,-100.00,North,5,13.0,33.0,9,0.00,,,0.00,925.000000,,2013-05-02 22:33:00,
2013-05-02 16:42:00,64.0,4.0,-100.00,North,5,13.0,33.0,9,0.00,,,0.00,925.000000,,2013-05-02 22:42:00,
2013-05-02 16:52:00,64.0,4.0,-100.00,North,5,13.0,33.0,9,0.00,,,0.00,925.000000,,2013-05-02 22:52:00,
2013-05-02 17:02:00,64.0,4.0,-100.00,North,5,13.0,33.0,9,0.00,,,0.00,925.000000,,2013-05-02 23:02:00,
2013-05-02 17:22:00,66.0,6.0,-100.00,NNE,21,6.0,19.0,9,0.00,,,0.00,792.000000,,2013-05-02 23:22:00,
2013-05-02 17:32:00,66.0,6.0,-100.00,NNE,21,6.0,19.0,9,0.00,,,0.00,792.000000,,2013-05-02 23:32:00,
2013-05-02 17:42:00,66.0,6.0,-100.00,NNE,21,6.0,19.0,9,0.00,,,0.00,792.000000,,2013-05-02 23:42:00,
2013-05-02 17:52:00,66.0,6.0,-100.00,NNE,21,6.0,19.0,9,0.00,,,0.00,792.000000,,2013-05-02 23:52:00,
2013-05-02 18:01:00,66.0,6.0,-100.00,NNE,21,6.0,19.0,9,0.00,,,0.00,792.000000,,2013-05-03 00:01:00,
2013-05-02 18:22:00,63.0,3.0,-100.00,ENE,63,6.0,15.0,9,0.00,,,0.00,377.000000,,2013-05-03 00:22:00,
2013-05-02 18:32:00,63.0,3.0,-100.00,ENE,63,6.0,15.0,9,0.00,,,0.00,377.000000,,2013-05-03 00:32:00,
2013-05-02 18:42:00,63.0,3.0,-100.00,ENE,63,6.0,15.0,9,0.00,,,0.00,377.000000,,2013-05-03 00:42:00,
2013-05-02 19:21:00,62.0,3.0,-100.00,NE,41,5.0,14.0,9,0.00,,,0.00,183.000000,,2013-05-03 01:21:00,
2013-05-02 19:32:00,62.0,3.0,-100.00,NE,41,5.0,14.0,9,0.00,,,0.00,183.000000,,2013-05-03 01:32:00,
2013-05-02 19:42:00,62.0,3.0,-100.00,NE,41,5.0,14.0,9,0.00,,,0.00,183.000000,,2013-05-03 01:42:00,
2013-05-02 19:52:00,62.0,3.0,-100.00,NE,41,5.0,14.0,9,0.00,,,0.00,183.000000,,2013-05-03 01:52:00,
2013-05-02 20:01:00,62.0,3.0,-100.00,NE,41,5.0,14.0,9,0.00,,,0.00,183.000000,,2013-05-03 02:01:00,
2013-05-02 20:22:00,60.0,3.0,-100.00,WNW,290,2.0,8.0,10,0.00,,,0.00,173.000000,,2013-05-03 02:22:00,
2013-05-02 20:32:00,60.0,3.0,-100.00,WNW,290,2.0,8.0,10,0.00,,,0.00,173.000000,,2013-05-03 02:32:00,
2013-05-02 20:42:00,60.0,3.0,-100.00,WNW,290,2.0,8.0,10,0.00,,,0.00,173.000000,,2013-05-03 02:42:00,
2013-05-02 20:52:00,60.0,3.0,-100.00,WNW,290,2.0,8.0,10,0.00,,,0.00,173.000000,,2013-05-03 02:52:00,
2013-05-02 21:01:00,60.0,3.0,-100.00,WNW,290,2.0,8.0,10,0.00,,,0.00,173.000000,,2013-05-03 03:01:00,
2013-05-02 21:21:00,48.0,4.0,-100.00,SW,230,7.0,9.0,16,0.00,,,0.00,10.000000,,2013-05-03 03:21:00,
2013-05-02 21:33:00,48.0,4.0,-100.00,SW,230,7.0,9.0,16,0.00,,,0.00,10.000000,,2013-05-03 03:33:00,
2013-05-02 22:32:00,55.0,1.0,-100.00,WNW,290,9.0,15.0,11,0.00,,,0.00,0.000000,,2013-05-03 04:32:00,
2013-05-02 23:22:00,50.0,1.0,-100.00,WSW,250,4.0,13.0,13,-99.99,,,0.00,0.000000,,2013-05-03 05:22:00,
2013-05-02 23:32:00,50.0,1.0,-100.00,WSW,250,4.0,13.0,13,-99.99,,,0.00,0.000000,,2013-05-03 05:32:00,